»·PEaware :: WAT563 KLAS-KSNA

WAT563 :: KLAS-KSNA

FLIGHT INFORMATION

Flight Status: Arrived
Operator:
Walker Air Transport
More flights by this operator :: More flights under this callsign
Pilot: Trevel L P. (20826)
Aircraft: BOEING 717-200
(B712)
More flights by this aircraft type
Origin: KLAS McCarran Intl
United States
Destination: KSNA John Wayne-Orange Co
United States
More flights between these airports :: More routes between these airports
Route: BOACH8 WHIGG FEYLA DSNEE4
File this flight plan on PilotEdge
Remarks: RMK / SIMBRIEF
Altitude:
(Current/Filed)
28,000ft
Speed:
(Current/Filed)
482kts
Departed: 22-Feb-21 05:32 PM
Arrived: 22-Feb-21 06:12 PM
Distance/Time
Traveled:
197nm/0:40
Distance/Time
To Go:
Arrived

Flight Plot

Page will automatically refresh every two minutes.

Flight plan parsing failed; only flown route is shown


Map Options




Map Legend


Flown Route
Filed Route
Departure Airport
Arrival Airport
Navaid (VOR, NDB)
Fix

Horizontal Profiles

Position Reports

Time Latitude Longitude Heading Altitude Ground
Speed
22-Feb-21 16:58 36.080071 -115.139423 320 2189ft 0kts
22-Feb-21 16:59 36.080071 -115.139423 320 2189ft 0kts
22-Feb-21 17:00 36.080071 -115.139423 320 2189ft 0kts
22-Feb-21 17:01 36.080071 -115.139423 320 2189ft 0kts
22-Feb-21 17:02 36.080071 -115.139423 320 2189ft 0kts
22-Feb-21 17:03 36.080071 -115.139423 320 2189ft 0kts
22-Feb-21 17:04 36.080071 -115.139423 320 2189ft 0kts
22-Feb-21 17:05 36.080071 -115.139423 320 2189ft 0kts
22-Feb-21 17:06 36.080071 -115.139423 320 2189ft 0kts
22-Feb-21 17:07 36.080071 -115.139423 320 2189ft 0kts
22-Feb-21 17:08 36.080071 -115.139423 320 2189ft 0kts
22-Feb-21 17:09 36.080071 -115.139423 320 2189ft 0kts
22-Feb-21 17:10 36.080071 -115.139423 320 2189ft 0kts
22-Feb-21 17:11 36.080071 -115.139423 320 2189ft 0kts
22-Feb-21 17:12 36.080071 -115.139423 320 2189ft 0kts
22-Feb-21 17:13 36.079838 -115.139184 320 2189ft 2kts
22-Feb-21 17:14 36.079687 -115.138514 228 2189ft 2kts
22-Feb-21 17:15 36.079770 -115.138400 227 2189ft 0kts
22-Feb-21 17:16 36.079770 -115.138400 227 2189ft 0kts
22-Feb-21 17:17 36.079769 -115.138400 227 2189ft 0kts
22-Feb-21 17:18 36.079769 -115.138401 227 2189ft 0kts
22-Feb-21 17:19 36.079769 -115.138401 226 2189ft 0kts
22-Feb-21 17:20 36.079768 -115.138402 226 2189ft 0kts
22-Feb-21 17:21 36.079768 -115.138403 226 2189ft 0kts
22-Feb-21 17:22 36.079767 -115.138404 226 2189ft 0kts
22-Feb-21 17:23 36.079130 -115.139778 250 2189ft 18kts
22-Feb-21 17:24 36.077516 -115.141021 97 2189ft 12kts
22-Feb-21 17:25 36.077459 -115.136660 98 2189ft 11kts
22-Feb-21 17:26 36.077529 -115.133511 88 2189ft 8kts
22-Feb-21 17:27 36.077565 -115.129957 88 2189ft 12kts
22-Feb-21 17:28 36.077560 -115.125953 90 2189ft 11kts
22-Feb-21 17:29 36.077300 -115.121393 153 2189ft 0kts
22-Feb-21 17:30 36.076391 -115.122716 268 2189ft 16kts
22-Feb-21 17:31 36.076024 -115.155026 268 2359ft 160kts
22-Feb-21 17:32 36.074832 -115.216023 272 4352ft 181kts
22-Feb-21 17:33 36.044689 -115.266681 202 5778ft 252kts
22-Feb-21 17:34 35.972415 -115.299558 193 8409ft 289kts
22-Feb-21 17:35 35.888929 -115.311252 184 10888ft 327kts
22-Feb-21 17:36 35.794949 -115.307961 173 13575ft 350kts
22-Feb-21 17:37 35.695856 -115.303411 190 16280ft 364kts
22-Feb-21 17:38 35.610128 -115.385783 227 16796ft 429kts
22-Feb-21 17:39 35.528367 -115.496033 226 18941ft 421kts
22-Feb-21 17:40 35.449652 -115.602024 226 20748ft 441kts
22-Feb-21 17:41 35.363909 -115.717400 226 21462ft 466kts
22-Feb-21 17:42 35.275678 -115.835692 226 22249ft 473kts
22-Feb-21 17:43 35.191090 -115.946343 224 22267ft 431kts
22-Feb-21 17:44 35.107459 -116.051720 224 22273ft 433kts
22-Feb-21 17:45 35.023500 -116.157256 224 22274ft 432kts
22-Feb-21 17:46 34.939620 -116.262339 224 22285ft 432kts
22-Feb-21 17:47 34.855998 -116.367520 224 22284ft 433kts
22-Feb-21 17:48 34.772922 -116.473372 224 22294ft 433kts
22-Feb-21 17:49 34.688766 -116.578303 219 22295ft 431kts
22-Feb-21 17:50 34.595941 -116.669840 217 22301ft 429kts
22-Feb-21 17:51 34.508643 -116.755439 218 22119ft 393kts
22-Feb-21 17:52 34.429824 -116.845819 222 20189ft 384kts
22-Feb-21 17:53 34.353728 -116.933993 223 18367ft 373kts
22-Feb-21 17:54 34.280060 -117.018556 220 16445ft 349kts
22-Feb-21 17:55 34.202908 -117.079733 210 13588ft 334kts
22-Feb-21 17:56 34.119810 -117.130073 203 12186ft 328kts
22-Feb-21 17:57 34.035622 -117.175077 203 12071ft 338kts
22-Feb-21 17:58 33.963496 -117.241869 228 10635ft 329kts
22-Feb-21 17:59 33.907648 -117.320778 228 9513ft 268kts
22-Feb-21 18:00 33.860305 -117.387645 228 8320ft 257kts
22-Feb-21 18:01 33.816520 -117.455011 243 8053ft 257kts
22-Feb-21 18:02 33.805792 -117.536172 287 7530ft 250kts
22-Feb-21 18:03 33.829935 -117.616832 291 6582ft 250kts
22-Feb-21 18:04 33.853675 -117.694489 291 6049ft 248kts
22-Feb-21 18:05 33.877700 -117.772890 291 4995ft 273kts
22-Feb-21 18:06 33.890508 -117.856689 243 4574ft 278kts
22-Feb-21 18:07 33.819255 -117.881005 150 4298ft 263kts
22-Feb-21 18:08 33.770206 -117.837685 142 3389ft 182kts
22-Feb-21 18:09 33.722779 -117.834833 198 1615ft 169kts
22-Feb-21 18:10 33.684947 -117.863041 203 254ft 156kts
22-Feb-21 18:11 33.667625 -117.873018 86 64ft 7kts
22-Feb-21 18:12 33.667412 -117.872366 129 64ft 0kts

Navigation Log

Ident Type
Flight plan parsing failed, navigation log unavailable